Time;durP1;ratioP1;P1;durP2;ratioP2;P2;SDS_P1;SDS_P2;PMS_P1;PMS_P2;Temp;Humidity;BMP_temperature;BMP_pressure;BME280_temperature;BME280_humidity;BME280_pressure;Samples;Min_cycle;Max_cycle;Signal;HPM_P1;HPM_P2
2023/05/07 00:02:18;;;;;;;2.90;0.80;;;13.30;99.90;;;;;;5068851;28;20220;-77
2023/05/07 00:04:49;;;;;;;0.65;0.60;;;13.20;99.90;;;;;;5072413;28;20691;-76
2023/05/07 00:07:20;;;;;;;1.05;0.80;;;13.20;99.90;;;;;;5055812;28;20201;-77
2023/05/07 00:09:51;;;;;;;1.35;0.70;;;13.20;99.90;;;;;;5054673;28;21167;-76
2023/05/07 00:12:22;;;;;;;2.20;1.00;;;13.20;99.90;;;;;;5052451;28;20211;-77
2023/05/07 00:14:55;;;;;;;2.78;1.08;;;13.10;99.90;;;;;;5060225;28;20192;-79
2023/05/07 00:17:26;;;;;;;2.00;0.80;;;13.10;99.90;;;;;;5071889;28;20567;-76
2023/05/07 00:19:57;;;;;;;2.55;1.10;;;13.20;99.90;;;;;;5071926;28;20595;-77
2023/05/07 00:22:30;;;;;;;2.40;0.90;;;13.20;99.90;;;;;;5072190;28;20223;-78
2023/05/07 00:25:01;;;;;;;1.67;1.00;;;13.20;99.90;;;;;;5069493;28;20253;-77
2023/05/07 00:27:32;;;;;;;1.20;0.80;;;13.10;99.90;;;;;;5071375;28;20282;-77
2023/05/07 00:30:05;;;;;;;1.67;1.00;;;13.10;99.90;;;;;;5069674;28;20223;-77
2023/05/07 00:32:36;;;;;;;3.33;1.20;;;13.20;99.90;;;;;;5071279;28;20230;-77
2023/05/07 00:35:08;;;;;;;1.83;1.10;;;13.20;99.90;;;;;;5070155;28;20606;-76
2023/05/07 00:37:39;;;;;;;1.17;0.70;;;13.40;99.90;;;;;;5073499;28;21073;-77
2023/05/07 00:40:11;;;;;;;2.13;1.00;;;13.30;99.90;;;;;;5071213;28;20204;-76
2023/05/07 00:42:46;;;;;;;2.75;1.20;;;13.30;99.90;;;;;;5061416;28;21165;-77
2023/05/07 00:45:20;;;;;;;1.38;1.10;;;13.20;99.90;;;;;;5063174;28;20729;-77
2023/05/07 00:47:51;;;;;;;1.13;0.98;;;13.30;99.90;;;;;;5058922;28;20226;-75
2023/05/07 00:50:22;;;;;;;1.98;1.05;;;13.20;99.90;;;;;;5070731;28;20267;-77
2023/05/07 00:52:53;;;;;;;1.15;0.80;;;13.20;99.90;;;;;;5063535;28;20231;-76
2023/05/07 00:55:27;;;;;;;2.30;1.00;;;13.30;99.90;;;;;;5065882;28;20187;-76
2023/05/07 00:57:59;;;;;;;2.38;1.00;;;13.50;99.90;;;;;;5062444;28;20213;-77
2023/05/07 01:00:32;;;;;;;1.65;0.88;;;13.60;99.90;;;;;;5070659;28;20192;-76
2023/05/07 01:03:03;;;;;;;3.40;0.77;;;13.70;99.90;;;;;;5067971;28;20212;-77
2023/05/07 01:05:34;;;;;;;1.33;0.75;;;13.70;99.90;;;;;;5068737;28;20683;-76
2023/05/07 01:08:07;;;;;;;1.75;0.85;;;13.70;99.90;;;;;;5068888;28;20200;-77
2023/05/07 01:10:38;;;;;;;1.20;0.80;;;13.80;99.90;;;;;;5067815;28;20192;-77
2023/05/07 01:13:09;;;;;;;1.70;0.50;;;13.80;99.90;;;;;;5069304;28;20297;-77
2023/05/07 01:15:43;;;;;;;3.17;0.90;;;13.90;99.90;;;;;;5062214;28;20196;-78
2023/05/07 01:18:14;;;;;;;1.27;0.60;;;14.00;99.90;;;;;;5058696;28;20197;-76
2023/05/07 01:20:46;;;;;;;1.38;0.70;;;14.00;99.90;;;;;;5063463;28;20191;-77
2023/05/07 01:23:20;;;;;;;0.85;0.60;;;14.00;99.90;;;;;;5069705;28;20223;-77
2023/05/07 01:25:56;;;;;;;0.90;0.65;;;14.00;99.90;;;;;;5066552;28;20196;-76
2023/05/07 01:28:27;;;;;;;1.35;0.82;;;14.00;99.90;;;;;;5069098;28;20236;-77
2023/05/07 01:31:02;;;;;;;0.70;0.70;;;14.00;99.90;;;;;;5072343;28;20275;-77
2023/05/07 01:33:37;;;;;;;0.70;0.70;;;14.00;99.90;;;;;;5070646;28;20260;-77
2023/05/07 01:36:10;;;;;;;0.85;0.60;;;13.90;99.90;;;;;;5069942;28;20196;-78
2023/05/07 01:38:44;;;;;;;1.80;0.80;;;13.80;99.90;;;;;;5068026;28;20200;-77
2023/05/07 01:41:16;;;;;;;1.15;0.70;;;13.70;99.90;;;;;;5070393;28;20571;-77
2023/05/07 01:43:47;;;;;;;2.65;1.90;;;13.60;99.90;;;;;;5068412;28;20666;-77
2023/05/07 01:46:20;;;;;;;2.30;1.60;;;13.50;99.90;;;;;;5071050;28;20272;-77
2023/05/07 01:48:52;;;;;;;2.35;0.93;;;13.70;99.90;;;;;;5061665;28;20291;-77
2023/05/07 01:51:23;;;;;;;0.82;0.82;;;13.90;99.90;;;;;;5073264;28;20222;-78
2023/05/07 01:53:56;;;;;;;2.15;1.10;;;14.10;99.90;;;;;;5057468;28;20216;-77
2023/05/07 01:56:29;;;;;;;1.67;0.65;;;14.30;99.90;;;;;;5072464;28;20565;-76
2023/05/07 01:59:00;;;;;;;1.38;0.85;;;14.30;99.90;;;;;;5067529;28;20204;-76
2023/05/07 02:01:31;;;;;;;0.85;0.60;;;14.30;99.90;;;;;;5061417;28;20203;-78
2023/05/07 02:04:03;;;;;;;1.67;0.75;;;14.40;99.90;;;;;;5070822;28;20200;-78
2023/05/07 02:06:34;;;;;;;0.65;0.65;;;14.10;99.90;;;;;;5070575;28;20214;-76
2023/05/07 02:09:08;;;;;;;0.70;0.63;;;14.20;99.90;;;;;;5067023;28;20196;-77
2023/05/07 02:11:41;;;;;;;0.60;0.55;;;14.10;99.90;;;;;;5066996;28;20662;-77
2023/05/07 02:14:12;;;;;;;1.67;0.93;;;14.20;99.90;;;;;;5066753;28;20203;-77
2023/05/07 02:16:43;;;;;;;1.40;0.98;;;14.50;99.90;;;;;;5069815;28;20708;-77
2023/05/07 02:19:16;;;;;;;0.60;0.60;;;14.60;99.90;;;;;;5071794;28;20195;-78
2023/05/07 02:21:47;;;;;;;1.13;0.57;;;14.90;99.90;;;;;;5073856;28;20671;-78
2023/05/07 02:24:20;;;;;;;1.42;0.60;;;15.10;99.90;;;;;;5074516;28;20770;-78
2023/05/07 02:26:52;;;;;;;1.85;1.00;;;15.10;99.90;;;;;;5074258;28;20192;-78
2023/05/07 02:29:23;;;;;;;1.05;0.57;;;15.30;99.90;;;;;;5076510;28;20702;-77
2023/05/07 02:31:55;;;;;;;0.70;0.65;;;15.50;99.90;;;;;;5067292;28;20196;-78
2023/05/07 02:34:26;;;;;;;0.85;0.60;;;15.40;99.90;;;;;;5076600;28;20196;-78
2023/05/07 02:36:57;;;;;;;2.83;0.60;;;15.60;99.90;;;;;;5077243;28;20207;-78
2023/05/07 02:39:31;;;;;;;0.80;0.47;;;15.50;99.90;;;;;;5058380;28;20238;-78
2023/05/07 02:42:04;;;;;;;0.68;0.60;;;15.60;99.90;;;;;;5074121;28;20220;-78
2023/05/07 02:44:36;;;;;;;1.65;0.68;;;15.70;99.90;;;;;;5075642;28;20202;-78
2023/05/07 02:47:08;;;;;;;1.38;0.80;;;15.90;99.90;;;;;;5074961;28;20330;-78
2023/05/07 02:49:39;;;;;;;0.60;0.60;;;15.90;99.90;;;;;;5072906;28;20200;-77
2023/05/07 02:52:10;;;;;;;0.65;0.60;;;16.10;99.90;;;;;;5072791;28;20237;-78
2023/05/07 02:54:43;;;;;;;2.70;1.27;;;16.20;99.90;;;;;;5077337;28;20247;-78
2023/05/07 02:57:14;;;;;;;0.98;0.70;;;16.10;99.90;;;;;;5070746;28;20192;-78
2023/05/07 02:59:46;;;;;;;0.75;0.70;;;16.20;99.90;;;;;;5073272;28;20202;-78
2023/05/07 03:02:17;;;;;;;2.67;0.80;;;16.10;99.90;;;;;;5053203;28;20228;-78
2023/05/07 03:04:48;;;;;;;0.65;0.60;;;16.00;99.90;;;;;;5078595;28;20202;-78
2023/05/07 03:07:20;;;;;;;1.60;0.40;;;15.60;99.90;;;;;;5071704;28;20206;-78
2023/05/07 03:09:53;;;;;;;1.77;0.28;;;15.00;99.90;;;;;;5083310;28;20200;-77
2023/05/07 03:12:24;;;;;;;4.47;0.65;;;14.20;99.90;;;;;;5073811;28;20192;-77
2023/05/07 03:14:55;;;;;;;2.13;0.90;;;13.60;99.90;;;;;;5077033;28;20206;-78
2023/05/07 03:17:26;;;;;;;7.00;1.05;;;13.10;99.90;;;;;;5094931;28;20585;-77
2023/05/07 03:19:58;;;;;;;3.75;0.80;;;12.90;99.90;;;;;;5095472;28;20195;-77
2023/05/07 03:22:29;;;;;;;5.00;0.80;;;12.80;99.90;;;;;;5072838;28;20223;-76
2023/05/07 03:25:02;;;;;;;2.90;1.38;;;12.90;99.90;;;;;;5059816;28;20223;-77
2023/05/07 03:27:33;;;;;;;2.75;0.98;;;12.90;99.90;;;;;;5064015;28;20194;-77
2023/05/07 03:30:04;;;;;;;1.42;0.77;;;13.00;99.90;;;;;;5078298;28;20219;-76
2023/05/07 03:32:36;;;;;;;2.10;0.80;;;13.30;99.90;;;;;;5068282;28;20686;-77
2023/05/07 03:35:08;;;;;;;1.92;0.45;;;13.50;99.90;;;;;;5081140;28;20187;-77
2023/05/07 03:37:39;;;;;;;1.13;0.63;;;13.70;99.90;;;;;;5085046;28;20192;-77
2023/05/07 03:40:13;;;;;;;2.35;0.70;;;13.90;99.90;;;;;;5074216;28;20204;-79
2023/05/07 03:42:45;;;;;;;2.00;1.80;;;14.10;99.90;;;;;;5073672;28;20255;-76
2023/05/07 03:45:16;;;;;;;3.72;2.50;;;14.20;99.90;;;;;;5077019;28;20221;-78
2023/05/07 03:47:47;;;;;;;1.50;0.60;;;14.40;99.90;;;;;;5069774;28;20225;-77
2023/05/07 03:50:19;;;;;;;1.98;0.75;;;14.60;99.90;;;;;;5073627;28;20193;-77
2023/05/07 03:52:51;;;;;;;3.33;0.70;;;14.60;99.90;;;;;;5079032;28;20184;-78
2023/05/07 03:55:25;;;;;;;2.38;1.00;;;14.60;99.90;;;;;;5073546;28;20200;-78
2023/05/07 03:57:56;;;;;;;2.90;0.70;;;14.50;99.90;;;;;;5068338;28;20200;-78
2023/05/07 04:00:28;;;;;;;1.42;0.60;;;14.50;99.90;;;;;;5068673;28;20636;-77
2023/05/07 04:02:59;;;;;;;0.85;0.55;;;14.70;99.90;;;;;;5076100;28;20220;-77
2023/05/07 04:05:30;;;;;;;1.13;0.50;;;14.90;99.90;;;;;;5073524;28;20204;-76
2023/05/07 04:08:03;;;;;;;2.13;0.70;;;15.00;99.90;;;;;;5074624;28;20207;-76
2023/05/07 04:10:36;;;;;;;2.33;0.98;;;15.00;99.90;;;;;;5069919;28;20261;-77
2023/05/07 04:13:07;;;;;;;0.80;0.60;;;15.10;99.90;;;;;;5073507;28;20199;-77
2023/05/07 04:15:40;;;;;;;1.52;0.50;;;15.20;99.90;;;;;;5074963;28;20200;-76
2023/05/07 04:18:11;;;;;;;0.70;0.45;;;15.30;99.90;;;;;;5074159;28;20757;-77
2023/05/07 04:20:42;;;;;;;1.00;0.60;;;15.50;99.90;;;;;;5078637;28;20965;-78
2023/05/07 04:23:13;;;;;;;0.40;0.40;;;15.60;99.90;;;;;;5073127;28;20224;-78
2023/05/07 04:25:47;;;;;;;0.40;0.40;;;15.70;99.90;;;;;;5067766;28;20216;-78
2023/05/07 04:28:18;;;;;;;1.33;0.60;;;15.70;99.90;;;;;;5064645;28;20215;-77
2023/05/07 04:30:49;;;;;;;1.70;0.60;;;15.60;99.90;;;;;;5059279;28;20196;-77
2023/05/07 04:33:20;;;;;;;2.35;0.68;;;15.60;99.90;;;;;;5065008;28;20199;-78
2023/05/07 04:35:51;;;;;;;1.80;1.20;;;15.60;99.90;;;;;;5060337;28;20681;-77
2023/05/07 04:38:23;;;;;;;3.30;1.52;;;15.60;99.90;;;;;;5050274;28;20204;-77
2023/05/07 04:40:56;;;;;;;0.88;0.50;;;15.70;99.90;;;;;;5052329;28;20211;-77
2023/05/07 04:43:27;;;;;;;0.68;0.40;;;15.90;99.90;;;;;;5059696;28;20227;-78
2023/05/07 04:45:58;;;;;;;1.10;0.60;;;16.00;99.90;;;;;;5071662;28;20538;-78
2023/05/07 04:48:30;;;;;;;0.98;0.40;;;16.10;99.90;;;;;;5071684;28;20195;-77
2023/05/07 04:51:01;;;;;;;0.80;0.50;;;16.10;99.90;;;;;;5071163;28;20196;-77
2023/05/07 04:53:32;;;;;;;1.50;0.40;;;16.20;99.90;;;;;;5069297;28;20195;-78
2023/05/07 04:56:05;;;;;;;0.85;0.52;;;16.30;99.10;;;;;;5069517;28;20192;-77
2023/05/07 04:58:36;;;;;;;1.33;0.77;;;16.30;99.90;;;;;;5070858;28;20199;-77
2023/05/07 05:01:07;;;;;;;0.75;0.38;;;16.40;95.80;;;;;;5070775;28;20218;-77
2023/05/07 05:03:39;;;;;;;2.38;1.02;;;16.30;90.80;;;;;;5071060;28;20224;-77
2023/05/07 05:06:10;;;;;;;1.42;0.77;;;16.40;90.00;;;;;;5074703;28;20184;-77
2023/05/07 05:08:41;;;;;;;1.50;0.98;;;16.40;86.20;;;;;;5070746;28;20208;-78
2023/05/07 05:11:14;;;;;;;0.50;0.50;;;16.40;84.30;;;;;;5082432;28;20206;-78
2023/05/07 05:13:48;;;;;;;1.00;0.50;;;16.40;83.70;;;;;;5058428;28;20188;-78
2023/05/07 05:16:19;;;;;;;1.00;0.50;;;16.40;83.60;;;;;;5068781;28;20232;-78
2023/05/07 05:18:51;;;;;;;0.60;0.32;;;16.40;83.60;;;;;;5066562;28;20629;-78
2023/05/07 05:21:22;;;;;;;0.82;0.38;;;16.40;79.00;;;;;;5066777;28;20208;-78
2023/05/07 05:23:53;;;;;;;0.88;0.40;;;16.40;74.30;;;;;;5066397;28;20224;-78
2023/05/07 05:26:26;;;;;;;0.52;0.30;;;16.20;73.60;;;;;;5069904;28;20292;-78
2023/05/07 05:28:57;;;;;;;0.93;0.40;;;16.30;77.50;;;;;;5068883;28;20231;-78
2023/05/07 05:31:28;;;;;;;1.33;0.63;;;16.50;78.70;;;;;;5065660;28;20198;-80
2023/05/07 05:34:00;;;;;;;0.93;0.40;;;16.70;81.80;;;;;;5069373;28;20208;-77
2023/05/07 05:36:31;;;;;;;1.17;0.30;;;16.80;78.80;;;;;;5063542;28;20192;-79
2023/05/07 05:39:02;;;;;;;0.82;0.63;;;16.80;75.20;;;;;;5060235;28;20571;-77
2023/05/07 05:41:35;;;;;;;0.68;0.40;;;16.70;72.70;;;;;;5066370;28;20755;-76
2023/05/07 05:44:08;;;;;;;0.60;0.45;;;16.60;74.00;;;;;;5071082;28;20315;-77
2023/05/07 05:46:39;;;;;;;1.52;0.57;;;16.50;75.70;;;;;;5067868;28;20246;-78
2023/05/07 05:49:11;;;;;;;0.80;0.50;;;16.60;75.70;;;;;;5064956;28;20211;-77
2023/05/07 05:51:44;;;;;;;1.08;0.60;;;16.60;75.10;;;;;;5070338;28;20199;-77
2023/05/07 05:54:15;;;;;;;0.52;0.35;;;16.60;74.50;;;;;;5072727;28;20195;-78
2023/05/07 05:56:48;;;;;;;1.25;0.52;;;16.70;77.20;;;;;;5073566;28;20192;-77
2023/05/07 05:59:20;;;;;;;0.50;0.50;;;16.70;76.30;;;;;;5069518;28;20196;-76
2023/05/07 06:01:53;;;;;;;1.30;0.40;;;16.70;76.80;;;;;;5068621;28;20200;-77
2023/05/07 06:04:24;;;;;;;0.43;0.43;;;16.80;75.30;;;;;;5074358;28;20713;-77
2023/05/07 06:06:56;;;;;;;0.68;0.60;;;16.60;73.90;;;;;;5063848;28;20203;-77
2023/05/07 06:09:27;;;;;;;0.73;0.50;;;16.60;75.70;;;;;;5075819;28;20277;-78
2023/05/07 06:12:00;;;;;;;0.50;0.50;;;16.80;75.70;;;;;;5075771;28;20202;-78
2023/05/07 06:14:31;;;;;;;0.50;0.50;;;17.00;72.20;;;;;;5079092;28;20628;-78
2023/05/07 06:17:03;;;;;;;0.73;0.52;;;16.70;72.00;;;;;;5075480;28;20195;-78
2023/05/07 06:19:34;;;;;;;0.98;0.75;;;16.80;73.00;;;;;;5074418;28;20579;-78
2023/05/07 06:22:05;;;;;;;0.80;0.80;;;16.50;73.20;;;;;;5071444;28;20206;-78
2023/05/07 06:24:36;;;;;;;0.80;0.80;;;16.50;75.60;;;;;;5072925;28;20224;-79
2023/05/07 06:27:10;;;;;;;1.13;0.80;;;16.50;75.60;;;;;;5076277;28;20209;-77
2023/05/07 06:29:41;;;;;;;0.70;0.70;;;16.50;74.10;;;;;;5083343;28;20231;-79
2023/05/07 06:32:17;;;;;;;0.98;0.60;;;16.30;74.80;;;;;;5087346;28;20260;-78
2023/05/07 06:34:48;;;;;;;1.33;0.70;;;16.20;76.00;;;;;;5077975;28;20210;-78
2023/05/07 06:37:19;;;;;;;0.60;0.60;;;16.00;76.70;;;;;;5099094;28;20192;-78
2023/05/07 06:39:52;;;;;;;1.08;0.73;;;15.90;78.40;;;;;;5056221;28;20758;-77
2023/05/07 06:42:25;;;;;;;1.73;0.70;;;15.70;80.10;;;;;;5060991;28;20214;-77
2023/05/07 06:44:56;;;;;;;1.55;1.13;;;15.60;82.10;;;;;;5094643;28;20223;-77
2023/05/07 06:47:27;;;;;;;1.23;1.10;;;15.50;81.90;;;;;;5070755;28;20586;-77
2023/05/07 06:49:58;;;;;;;1.25;1.02;;;15.40;83.30;;;;;;5075753;28;20200;-77
2023/05/07 06:52:31;;;;;;;1.08;0.88;;;15.30;83.60;;;;;;5076243;28;20219;-77
2023/05/07 06:55:02;;;;;;;2.47;0.80;;;15.30;84.60;;;;;;5073217;28;20674;-77
2023/05/07 06:57:36;;;;;;;1.73;1.00;;;15.30;86.00;;;;;;5072326;28;20558;-76
2023/05/07 07:00:08;;;;;;;1.27;1.10;;;15.40;88.00;;;;;;5072052;28;20196;-75
2023/05/07 07:02:39;;;;;;;2.28;2.08;;;15.30;86.70;;;;;;5071255;28;20203;-77
2023/05/07 07:05:14;;;;;;;2.55;1.73;;;15.20;85.80;;;;;;5074060;28;20220;-77
2023/05/07 07:07:52;;;;;;;0.77;0.77;;;15.10;86.40;;;;;;5074113;28;20199;-75
2023/05/07 07:10:23;;;;;;;0.60;0.60;;;15.00;85.70;;;;;;5076195;28;20207;-81
2023/05/07 07:12:56;;;;;;;1.35;1.08;;;14.80;86.20;;;;;;5061732;28;20593;-75
2023/05/07 07:15:28;;;;;;;1.52;1.00;;;14.80;86.80;;;;;;5068244;28;20193;-76
2023/05/07 07:17:59;;;;;;;1.70;1.60;;;14.60;87.50;;;;;;5069640;28;20566;-76
2023/05/07 07:20:30;;;;;;;1.20;1.10;;;14.50;88.20;;;;;;5071735;28;20192;-75
2023/05/07 07:23:01;;;;;;;0.73;0.73;;;14.50;89.00;;;;;;5069448;28;20199;-76
2023/05/07 07:25:32;;;;;;;0.80;0.80;;;14.50;89.10;;;;;;5074557;28;20587;-76
2023/05/07 07:28:05;;;;;;;1.67;0.80;;;14.50;90.20;;;;;;5093400;28;20207;-77
2023/05/07 07:30:36;;;;;;;1.27;0.82;;;14.40;90.80;;;;;;5076482;28;20202;-76
2023/05/07 07:33:08;;;;;;;2.85;1.20;;;14.30;91.30;;;;;;5072576;28;20850;-75
2023/05/07 07:35:39;;;;;;;1.05;0.90;;;14.20;91.00;;;;;;5070983;28;20197;-75
2023/05/07 07:38:11;;;;;;;0.70;0.70;;;14.10;91.90;;;;;;5065338;28;20196;-77
2023/05/07 07:40:43;;;;;;;0.88;0.77;;;14.10;92.40;;;;;;5072407;28;20207;-77
2023/05/07 07:43:16;;;;;;;1.33;0.98;;;14.00;93.10;;;;;;5072862;28;20647;-77
2023/05/07 07:45:47;;;;;;;1.30;1.10;;;14.00;94.00;;;;;;5072216;28;20191;-77
2023/05/07 07:48:19;;;;;;;3.05;1.85;;;14.00;94.40;;;;;;5071879;28;20245;-76
2023/05/07 07:50:54;;;;;;;1.00;0.90;;;14.00;95.20;;;;;;5072348;28;20200;-77
2023/05/07 07:53:25;;;;;;;1.38;0.98;;;14.00;95.20;;;;;;5071824;28;20570;-77
2023/05/07 07:55:56;;;;;;;8.23;4.38;;;13.90;95.40;;;;;;5052382;28;20665;-76
2023/05/07 07:58:30;;;;;;;1.55;1.10;;;13.80;96.60;;;;;;5051812;28;20207;-77
2023/05/07 08:01:01;;;;;;;0.90;0.90;;;13.80;97.00;;;;;;5067854;28;20223;-76
2023/05/07 08:03:33;;;;;;;2.65;1.00;;;13.70;97.80;;;;;;5072242;28;20200;-76
2023/05/07 08:06:04;;;;;;;1.17;0.85;;;13.80;97.80;;;;;;5072025;28;20208;-76
2023/05/07 08:08:35;;;;;;;1.88;1.35;;;13.80;98.30;;;;;;5073948;28;20600;-76
2023/05/07 08:11:07;;;;;;;1.73;0.98;;;13.80;98.70;;;;;;5080141;28;20202;-76
2023/05/07 08:13:42;;;;;;;1.85;1.30;;;13.70;99.70;;;;;;5071776;28;20206;-76
2023/05/07 08:16:14;;;;;;;2.45;1.33;;;13.60;99.30;;;;;;5075938;28;20203;-76
2023/05/07 08:18:45;;;;;;;1.45;1.15;;;13.60;99.50;;;;;;5053611;28;20197;-77
2023/05/07 08:21:16;;;;;;;0.60;0.60;;;13.60;99.90;;;;;;5071876;28;20196;-77
2023/05/07 08:23:47;;;;;;;1.75;1.20;;;13.60;99.90;;;;;;5071486;28;20717;-77
2023/05/07 08:26:18;;;;;;;0.93;0.88;;;13.60;99.90;;;;;;5070136;28;20188;-77
2023/05/07 08:28:51;;;;;;;1.08;0.93;;;13.50;99.90;;;;;;5071273;28;20238;-77
2023/05/07 08:31:23;;;;;;;1.25;0.95;;;13.60;99.90;;;;;;5071308;28;20741;-77
2023/05/07 08:33:55;;;;;;;1.40;1.23;;;13.60;99.90;;;;;;5072139;28;20208;-76
2023/05/07 08:36:26;;;;;;;1.70;1.50;;;13.60;99.90;;;;;;5070901;28;20192;-77
2023/05/07 08:38:59;;;;;;;3.20;2.15;;;13.50;99.90;;;;;;5072872;28;20249;-77
2023/05/07 08:41:30;;;;;;;1.08;0.98;;;13.40;99.90;;;;;;5069664;28;20212;-77
2023/05/07 08:44:05;;;;;;;2.15;1.10;;;13.50;99.90;;;;;;5060149;28;20682;-76
2023/05/07 08:46:37;;;;;;;1.13;0.90;;;13.60;99.90;;;;;;5073746;28;20605;-76
2023/05/07 08:49:08;;;;;;;2.03;1.00;;;13.50;99.90;;;;;;5072480;28;20223;-77
2023/05/07 08:51:40;;;;;;;1.88;1.00;;;13.50;99.90;;;;;;5063130;28;20321;-76
2023/05/07 08:54:11;;;;;;;1.13;1.00;;;13.40;99.90;;;;;;5069081;28;20206;-76
2023/05/07 08:56:43;;;;;;;1.90;1.00;;;13.40;99.90;;;;;;5069216;28;20279;-76
2023/05/07 08:59:16;;;;;;;1.45;1.17;;;13.50;99.90;;;;;;5067445;28;20202;-76
2023/05/07 09:01:47;;;;;;;1.77;1.20;;;13.50;99.90;;;;;;5066380;28;20210;-76
2023/05/07 09:04:18;;;;;;;2.13;1.40;;;13.40;99.90;;;;;;5063157;28;20590;-75
2023/05/07 09:06:51;;;;;;;1.92;1.40;;;13.40;99.90;;;;;;5069254;28;20196;-76
2023/05/07 09:09:24;;;;;;;2.15;1.45;;;13.40;99.90;;;;;;5069601;28;20192;-75
2023/05/07 09:12:01;;;;;;;2.28;1.80;;;13.40;99.90;;;;;;5068283;28;20206;-76
2023/05/07 09:14:34;;;;;;;1.60;1.30;;;13.40;99.90;;;;;;5069326;28;20216;-76
2023/05/07 09:17:06;;;;;;;1.50;1.20;;;13.40;99.90;;;;;;5067959;28;20204;-77
2023/05/07 09:19:37;;;;;;;2.65;2.10;;;13.30;99.90;;;;;;5071057;28;20211;-77
2023/05/07 09:22:12;;;;;;;3.17;1.80;;;13.40;99.90;;;;;;5069020;28;20192;-77
2023/05/07 09:24:43;;;;;;;3.92;2.70;;;13.50;99.90;;;;;;5071025;28;20245;-75
2023/05/07 09:27:14;;;;;;;1.38;1.27;;;13.40;99.90;;;;;;5072021;28;20200;-75
2023/05/07 09:29:47;;;;;;;1.17;1.00;;;13.40;99.90;;;;;;5066028;28;20234;-77
2023/05/07 09:32:19;;;;;;;2.05;1.00;;;13.50;99.90;;;;;;5074320;28;20196;-75
2023/05/07 09:34:50;;;;;;;1.50;1.10;;;13.50;99.90;;;;;;5060537;28;20202;-76
2023/05/07 09:37:21;;;;;;;1.30;1.17;;;13.60;99.90;;;;;;5068259;28;20207;-75
2023/05/07 09:39:53;;;;;;;2.50;1.50;;;13.50;99.90;;;;;;5068257;28;20208;-75
2023/05/07 09:42:28;;;;;;;0.70;0.60;;;13.50;99.90;;;;;;5068192;28;20204;-76
2023/05/07 09:45:02;;;;;;;1.25;0.50;;;13.20;99.90;;;;;;5068769;28;20226;-76
2023/05/07 09:47:35;;;;;;;1.05;0.95;;;13.20;99.90;;;;;;5067875;28;20210;-75
2023/05/07 09:50:11;;;;;;;0.70;0.70;;;13.20;99.90;;;;;;5067220;28;20567;-76
2023/05/07 09:52:43;;;;;;;0.60;0.50;;;13.20;99.90;;;;;;5059569;28;20207;-76
2023/05/07 09:55:15;;;;;;;0.43;0.43;;;13.10;99.90;;;;;;5067269;28;20203;-75
2023/05/07 09:57:47;;;;;;;0.30;0.30;;;13.00;99.90;;;;;;5067655;28;20203;-76
2023/05/07 10:00:22;;;;;;;0.40;0.30;;;13.00;99.90;;;;;;5069090;28;20196;-75
2023/05/07 10:02:54;;;;;;;0.40;0.40;;;12.80;99.90;;;;;;5068374;28;20206;-75
2023/05/07 10:05:26;;;;;;;0.35;0.30;;;12.80;99.90;;;;;;5066785;28;20224;-75
2023/05/07 10:07:58;;;;;;;0.63;0.32;;;12.80;99.90;;;;;;5068868;28;20196;-75
2023/05/07 10:10:33;;;;;;;0.57;0.38;;;12.70;99.90;;;;;;5064356;28;20563;-75
2023/05/07 10:13:10;;;;;;;0.50;0.30;;;12.50;99.90;;;;;;5070871;28;20199;-75
2023/05/07 10:15:44;;;;;;;0.30;0.30;;;12.40;99.90;;;;;;5074129;28;20199;-76
2023/05/07 10:18:16;;;;;;;0.45;0.30;;;12.40;99.90;;;;;;5050098;28;20725;-76
2023/05/07 10:20:50;;;;;;;0.82;0.30;;;12.30;99.90;;;;;;5050124;28;20227;-76
2023/05/07 10:23:26;;;;;;;1.95;0.38;;;12.30;99.90;;;;;;5060216;28;20215;-76
2023/05/07 10:25:58;;;;;;;0.40;0.40;;;12.40;99.90;;;;;;5077866;28;20242;-75
2023/05/07 10:28:32;;;;;;;0.77;0.47;;;12.40;99.90;;;;;;5070321;28;20228;-72
2023/05/07 10:31:26;;;;;;;2.03;0.90;;;12.30;99.90;;;;;;5079051;28;20192;-75
2023/05/07 10:33:59;;;;;;;0.20;0.20;;;12.30;99.90;;;;;;5074980;28;20267;-75
2023/05/07 10:36:34;;;;;;;0.20;0.20;;;12.30;99.90;;;;;;5081783;28;20210;-77
2023/05/07 10:39:05;;;;;;;0.25;0.25;;;12.30;99.90;;;;;;5084178;28;20286;-76
2023/05/07 10:41:38;;;;;;;0.40;0.40;;;12.20;99.90;;;;;;5083337;28;20283;-75
2023/05/07 10:44:09;;;;;;;0.28;0.28;;;12.20;99.90;;;;;;5078087;28;20196;-76
2023/05/07 10:47:08;;;;;;;0.20;0.20;;;12.30;99.90;;;;;;5081715;28;20207;-75
2023/05/07 10:50:01;;;;;;;0.20;0.20;;;12.30;99.90;;;;;;5080440;28;20231;-75
2023/05/07 10:52:33;;;;;;;0.30;0.30;;;12.30;99.90;;;;;;5065533;28;20230;-75
2023/05/07 10:55:25;;;;;;;1.08;0.55;;;12.30;99.90;;;;;;5059640;28;20203;-75
2023/05/07 10:57:59;;;;;;;1.17;0.32;;;12.20;99.90;;;;;;5076437;28;20201;-78
2023/05/07 11:00:48;;;;;;;0.20;0.20;;;12.00;99.90;;;;;;5086698;28;20200;-77
2023/05/07 11:03:23;;;;;;;0.20;0.20;;;11.90;99.90;;;;;;5084308;28;20204;-76
2023/05/07 11:06:13;;;;;;;3.60;0.40;;;12.10;99.90;;;;;;5076172;28;20223;-77
2023/05/07 11:09:00;;;;;;;0.55;0.20;;;12.10;99.90;;;;;;5072892;28;20204;-76
2023/05/07 11:11:51;;;;;;;0.22;0.22;;;12.00;99.90;;;;;;5081394;28;20200;-79
2023/05/07 11:14:49;;;;;;;0.20;0.20;;;11.90;99.90;;;;;;5081265;28;20211;-78
2023/05/07 11:17:24;;;;;;;0.40;0.25;;;11.80;99.90;;;;;;5088006;28;20195;-77
2023/05/07 11:19:59;;;;;;;0.20;0.20;;;11.80;99.90;;;;;;5064137;28;20200;-76
2023/05/07 11:22:58;;;;;;;0.20;0.20;;;11.90;99.90;;;;;;5064934;28;20272;-77
2023/05/07 11:25:31;;;;;;;0.40;0.25;;;11.80;99.90;;;;;;5082922;28;20228;-76
2023/05/07 11:28:10;;;;;;;0.20;0.20;;;12.00;99.90;;;;;;5080840;28;20191;-78
2023/05/07 11:30:46;;;;;;;0.13;0.13;;;12.00;99.90;;;;;;5077660;28;20200;-75
2023/05/07 11:33:21;;;;;;;0.13;0.13;;;11.80;99.90;;;;;;5074286;28;20200;-75
2023/05/07 11:36:00;;;;;;;0.10;0.10;;;11.60;99.90;;;;;;5079150;28;21992;-76
2023/05/07 11:38:33;;;;;;;0.10;0.10;;;11.20;99.90;;;;;;5077455;28;20260;-76
2023/05/07 11:41:06;;;;;;;0.17;0.17;;;11.10;99.90;;;;;;5081242;28;20215;-76
2023/05/07 11:43:48;;;;;;;0.28;0.10;;;10.90;99.90;;;;;;5078197;28;20195;-76
2023/05/07 11:46:20;;;;;;;0.10;0.10;;;10.70;99.90;;;;;;5078600;28;20631;-75
2023/05/07 11:48:52;;;;;;;0.10;0.10;;;10.70;99.90;;;;;;5075502;28;20196;-76
2023/05/07 11:51:28;;;;;;;0.10;0.10;;;10.60;99.90;;;;;;5078239;28;20200;-75
2023/05/07 11:54:02;;;;;;;0.20;0.17;;;10.40;99.90;;;;;;5072360;28;20543;-76
2023/05/07 11:56:36;;;;;;;0.17;0.17;;;10.40;99.90;;;;;;5064827;28;20176;-77
2023/05/07 11:59:09;;;;;;;0.25;0.25;;;10.40;99.90;;;;;;5089702;28;20183;-77
2023/05/07 12:01:47;;;;;;;0.20;0.20;;;10.30;99.90;;;;;;5076924;28;20196;-76
2023/05/07 12:04:23;;;;;;;0.30;0.30;;;10.40;99.90;;;;;;5078358;28;20212;-76
2023/05/07 12:06:58;;;;;;;0.20;0.20;;;10.20;99.90;;;;;;5079392;28;20208;-77
2023/05/07 12:09:31;;;;;;;0.40;0.20;;;9.90;99.90;;;;;;5072802;28;20285;-77
2023/05/07 12:12:07;;;;;;;0.30;0.20;;;9.90;99.90;;;;;;5075214;28;20316;-78
2023/05/07 12:14:42;;;;;;;0.40;0.30;;;9.90;99.90;;;;;;5075208;28;20700;-81
2023/05/07 12:17:14;;;;;;;1.05;0.30;;;9.80;99.90;;;;;;5064907;28;20203;-76
2023/05/07 12:19:47;;;;;;;1.38;0.20;;;9.70;99.90;;;;;;5067048;28;20227;-76
2023/05/07 12:22:20;;;;;;;1.02;0.20;;;9.60;99.90;;;;;;5065257;28;20198;-77
2023/05/07 12:24:52;;;;;;;0.20;0.20;;;9.50;99.90;;;;;;5062480;28;20195;-75
2023/05/07 12:27:23;;;;;;;1.20;0.20;;;9.40;99.90;;;;;;5068624;28;20199;-75
2023/05/07 12:29:54;;;;;;;0.20;0.20;;;9.50;99.90;;;;;;5063552;28;21959;-76
2023/05/07 12:32:26;;;;;;;0.22;0.22;;;9.40;99.90;;;;;;5056029;28;20199;-76
2023/05/07 12:34:57;;;;;;;0.95;0.30;;;9.50;99.90;;;;;;5061442;28;20216;-76
2023/05/07 12:37:34;;;;;;;1.10;0.68;;;9.60;99.90;;;;;;5065888;28;20662;-77
2023/05/07 12:40:12;;;;;;;2.00;0.40;;;9.70;99.90;;;;;;5069409;28;20222;-76
2023/05/07 12:42:44;;;;;;;4.28;0.52;;;9.70;99.90;;;;;;5071530;28;20240;-76
2023/05/07 12:45:18;;;;;;;0.75;0.32;;;9.60;99.90;;;;;;5086215;28;20697;-76
2023/05/07 12:47:49;;;;;;;1.73;0.30;;;9.40;99.90;;;;;;5075096;28;20192;-75
2023/05/07 12:50:20;;;;;;;1.02;0.50;;;9.50;99.90;;;;;;5091929;28;20199;-75
2023/05/07 12:52:54;;;;;;;0.73;0.40;;;9.60;99.90;;;;;;5094745;28;20257;-75
2023/05/07 12:55:25;;;;;;;2.33;0.20;;;9.60;99.90;;;;;;5092105;28;20199;-75
2023/05/07 12:57:57;;;;;;;0.55;0.30;;;9.50;99.90;;;;;;5088578;28;20207;-76
2023/05/07 13:00:38;;;;;;;0.85;0.30;;;9.60;99.90;;;;;;5073035;28;20556;-76
2023/05/07 13:03:10;;;;;;;2.38;0.40;;;9.60;99.90;;;;;;5065493;28;20573;-76
2023/05/07 13:05:41;;;;;;;2.85;0.40;;;9.70;99.90;;;;;;5064852;28;20222;-77
2023/05/07 13:08:15;;;;;;;3.05;0.40;;;9.80;99.90;;;;;;5072223;28;20204;-76
2023/05/07 13:10:46;;;;;;;0.85;0.22;;;9.80;99.90;;;;;;5072562;28;20206;-76
2023/05/07 13:13:17;;;;;;;0.80;0.32;;;9.80;99.90;;;;;;5072980;28;20203;-76
2023/05/07 13:15:48;;;;;;;0.20;0.20;;;9.80;99.90;;;;;;5073360;28;20188;-76
2023/05/07 13:18:19;;;;;;;0.22;0.20;;;9.80;99.90;;;;;;5072840;28;20200;-76